createdAt,value
2018-12-02T00:01:54.492Z,1.09
2018-12-02T00:04:23.827Z,1.01
2018-12-02T00:06:53.224Z,1.03
2018-12-02T00:09:22.583Z,1.23
2018-12-02T00:11:51.960Z,1.24
2018-12-02T00:14:21.321Z,1.00
2018-12-02T00:16:50.644Z,0.96
2018-12-02T00:19:20.020Z,1.17
2018-12-02T00:21:49.382Z,0.89
2018-12-02T00:24:18.735Z,0.82
2018-12-02T00:26:48.081Z,0.88
2018-12-02T00:29:17.507Z,0.77
2018-12-02T00:31:46.835Z,0.81
2018-12-02T00:34:16.197Z,0.84
2018-12-02T00:36:45.558Z,0.53
2018-12-02T00:39:14.879Z,0.54
2018-12-02T00:41:44.248Z,0.71
2018-12-02T00:44:13.579Z,0.53
2018-12-02T00:46:42.897Z,0.48
2018-12-02T00:49:12.240Z,0.50
2018-12-02T00:51:41.600Z,0.60
2018-12-02T00:54:10.923Z,1.00
2018-12-02T00:56:40.287Z,0.47
2018-12-02T00:59:09.654Z,0.35
2018-12-02T01:01:39.000Z,0.52
2018-12-02T01:04:08.339Z,0.44
2018-12-02T01:06:37.677Z,0.31
2018-12-02T01:09:07.756Z,0.20
2018-12-02T01:11:37.134Z,0.34
2018-12-02T01:14:06.657Z,0.14
2018-12-02T01:16:36.062Z,0.08
2018-12-02T01:19:05.673Z,0.07
2018-12-02T01:21:35.002Z,0.05
2018-12-02T01:24:04.440Z,0.22
2018-12-02T01:26:33.804Z,0.36
2018-12-02T01:29:03.160Z,0.31
2018-12-02T01:31:32.511Z,0.39
2018-12-02T01:34:01.858Z,0.42
2018-12-02T01:36:31.454Z,0.50
2018-12-02T01:39:00.842Z,0.41
2018-12-02T01:41:30.172Z,0.34
2018-12-02T01:43:59.540Z,0.13
2018-12-02T01:46:28.917Z,0.01
2018-12-02T01:48:58.329Z,-0.06
2018-12-02T01:51:27.736Z,-0.09
2018-12-02T01:53:57.142Z,-0.16
2018-12-02T01:56:26.521Z,-0.22
2018-12-02T01:58:55.836Z,-0.28
2018-12-02T02:01:25.152Z,-0.28
2018-12-02T02:03:54.506Z,-0.34
2018-12-02T02:06:23.849Z,-0.30
2018-12-02T02:08:53.451Z,-0.38
2018-12-02T02:11:22.831Z,-0.40
2018-12-02T02:13:52.240Z,-0.16
2018-12-02T02:16:21.643Z,-0.43
2018-12-02T02:18:51.066Z,-0.38
2018-12-02T02:21:20.478Z,-0.15
2018-12-02T02:23:49.869Z,-0.40
2018-12-02T02:26:19.162Z,-0.66
2018-12-02T02:28:48.549Z,-0.63
2018-12-02T02:31:17.892Z,-0.72
2018-12-02T02:33:47.269Z,-0.70
2018-12-02T02:36:16.715Z,-0.80
2018-12-02T02:38:46.092Z,-0.85
2018-12-02T02:41:15.480Z,-0.84
2018-12-02T02:43:44.825Z,-0.86
2018-12-02T02:46:14.168Z,-0.91
2018-12-02T02:48:43.529Z,-0.91
2018-12-02T02:51:12.890Z,-0.89
2018-12-02T02:53:42.248Z,-0.90
2018-12-02T02:56:11.571Z,-0.99
2018-12-02T02:58:42.138Z,-1.02
2018-12-02T03:01:11.455Z,-0.95
2018-12-02T03:03:40.828Z,-0.95
2018-12-02T03:06:10.200Z,-1.06
2018-12-02T03:08:39.548Z,-1.12
2018-12-02T03:11:08.899Z,-1.14
2018-12-02T03:13:38.236Z,-1.10
2018-12-02T03:16:07.576Z,-1.12
2018-12-02T03:18:36.980Z,-1.14
2018-12-02T03:21:06.338Z,-1.09
2018-12-02T03:23:35.692Z,-0.98
2018-12-02T03:26:05.056Z,-0.83
2018-12-02T03:28:34.391Z,-0.74
2018-12-02T03:31:03.773Z,-0.71
2018-12-02T03:33:33.089Z,-0.71
2018-12-02T03:36:02.449Z,-0.67
2018-12-02T03:38:31.804Z,-0.69
2018-12-02T03:41:01.189Z,-0.69
2018-12-02T03:43:30.545Z,-0.68
2018-12-02T03:45:59.913Z,-0.60
2018-12-02T03:48:29.228Z,-0.81
2018-12-02T03:50:58.603Z,-0.90
2018-12-02T03:53:27.986Z,-0.98
2018-12-02T03:55:57.373Z,-1.06
2018-12-02T03:58:26.725Z,-0.92
2018-12-02T04:00:56.074Z,-0.95
2018-12-02T04:03:25.456Z,-0.92
2018-12-02T04:05:54.825Z,-0.94
2018-12-02T04:08:24.185Z,-0.83
2018-12-02T04:10:54.020Z,-0.78
2018-12-02T04:13:23.393Z,-0.41
2018-12-02T04:15:52.777Z,-0.58
2018-12-02T04:18:22.164Z,-0.41
2018-12-02T04:20:51.599Z,-0.34
2018-12-02T04:23:20.905Z,-0.27
2018-12-02T04:25:50.267Z,-0.23
2018-12-02T04:28:19.581Z,0.00
2018-12-02T04:30:48.904Z,0.27
2018-12-02T04:33:18.210Z,-0.07
2018-12-02T04:35:47.573Z,-0.03
2018-12-02T04:38:16.923Z,-0.01
2018-12-02T04:40:46.296Z,0.01
2018-12-02T04:43:15.676Z,0.12
2018-12-02T04:45:45.020Z,0.16
2018-12-02T04:48:14.340Z,0.13
2018-12-02T04:50:43.662Z,0.31
2018-12-02T04:53:13.017Z,0.08
2018-12-02T04:55:42.388Z,0.12
2018-12-02T04:58:11.798Z,0.15
2018-12-02T05:00:41.172Z,0.17
2018-12-02T05:03:10.570Z,0.20
2018-12-02T05:05:39.917Z,0.24
2018-12-02T05:08:09.351Z,0.35
2018-12-02T05:10:38.695Z,0.45
2018-12-02T05:13:08.124Z,0.63
2018-12-02T05:15:37.481Z,0.45
2018-12-02T05:18:07.063Z,0.48
2018-12-02T05:20:36.375Z,0.55
2018-12-02T05:23:06.100Z,0.94
2018-12-02T05:25:35.435Z,1.05
2018-12-02T05:28:04.741Z,0.99
2018-12-02T05:30:34.065Z,0.75
2018-12-02T05:33:03.432Z,0.60
2018-12-02T05:35:32.806Z,0.87
2018-12-02T05:38:02.212Z,1.24
2018-12-02T05:40:31.595Z,1.17
2018-12-02T05:43:00.936Z,0.84
2018-12-02T05:45:30.250Z,0.65
2018-12-02T05:47:59.637Z,0.61
2018-12-02T05:50:29.570Z,0.66
2018-12-02T05:52:59.935Z,0.70
2018-12-02T05:55:34.633Z,0.75
2018-12-02T05:58:03.967Z,0.72
2018-12-02T06:00:33.319Z,0.66
2018-12-02T06:03:02.673Z,0.67
2018-12-02T06:05:32.007Z,0.82
2018-12-02T06:08:01.344Z,0.78
2018-12-02T06:10:30.715Z,0.95
2018-12-02T06:13:00.043Z,0.79
2018-12-02T06:15:29.373Z,0.85
2018-12-02T06:17:58.750Z,0.96
2018-12-02T06:20:28.148Z,1.20
2018-12-02T06:22:58.476Z,0.94
2018-12-02T06:25:27.856Z,1.30
2018-12-02T06:27:57.187Z,1.28
2018-12-02T06:30:29.309Z,0.95
2018-12-02T06:33:03.276Z,1.08
2018-12-02T06:35:32.606Z,1.39
2018-12-02T06:38:03.992Z,1.62
2018-12-02T06:40:33.326Z,1.24
2018-12-02T06:43:02.697Z,1.11
2018-12-02T06:45:32.039Z,1.05
2018-12-02T06:48:01.389Z,1.25
2018-12-02T06:50:30.740Z,1.47
2018-12-02T06:53:00.108Z,1.27
2018-12-02T06:55:39.598Z,1.23
2018-12-02T06:58:23.845Z,1.32
2018-12-02T07:01:23.917Z,1.28
2018-12-02T07:04:28.237Z,1.14
2018-12-02T07:06:58.320Z,1.43
2018-12-02T07:09:27.639Z,1.57
2018-12-02T07:11:56.967Z,1.95
2018-12-02T07:14:26.353Z,1.55
2018-12-02T07:16:55.741Z,1.43
2018-12-02T07:19:27.893Z,1.41
2018-12-02T07:22:04.357Z,1.66
2018-12-02T07:24:33.976Z,1.77
2018-12-02T07:27:03.363Z,2.26
2018-12-02T07:29:32.690Z,1.73
2018-12-02T07:32:02.022Z,1.58
2018-12-02T07:34:31.390Z,2.17
2018-12-02T07:37:03.648Z,1.85
2018-12-02T07:39:58.902Z,1.93
2018-12-02T07:42:28.213Z,2.20
2018-12-02T07:44:57.541Z,1.72
2018-12-02T07:47:26.908Z,2.17
2018-12-02T07:49:56.223Z,2.26
2018-12-02T07:52:26.408Z,2.28
2018-12-02T07:54:55.726Z,1.76
2018-12-02T07:57:25.055Z,1.79
2018-12-02T07:59:54.463Z,2.10
2018-12-02T08:02:23.840Z,2.21
2018-12-02T08:04:54.444Z,2.39
2018-12-02T08:07:23.822Z,2.27
2018-12-02T08:09:59.679Z,2.50
2018-12-02T08:12:29.022Z,2.44
2018-12-02T08:14:58.392Z,2.41
2018-12-02T08:17:27.793Z,2.68
2018-12-02T08:19:57.153Z,2.54
2018-12-02T08:22:26.488Z,2.55
2018-12-02T08:24:55.792Z,2.35
2018-12-02T08:27:25.161Z,2.42
2018-12-02T08:29:54.508Z,2.33
2018-12-02T08:32:23.859Z,2.43
2018-12-02T08:34:53.219Z,2.51
2018-12-02T08:37:22.555Z,2.57
2018-12-02T08:39:51.898Z,2.82
2018-12-02T08:42:21.279Z,3.18
2018-12-02T08:44:50.589Z,3.50
2018-12-02T08:47:19.945Z,3.46
2018-12-02T08:49:49.282Z,3.38
2018-12-02T08:52:18.684Z,3.31
2018-12-02T08:54:48.040Z,3.40
2018-12-02T08:57:17.344Z,3.27
2018-12-02T08:59:46.663Z,3.32
2018-12-02T09:02:15.980Z,3.02
2018-12-02T09:04:45.346Z,2.93
2018-12-02T09:07:14.686Z,2.93
2018-12-02T09:09:44.051Z,3.10
2018-12-02T09:12:13.400Z,3.78
2018-12-02T09:14:42.764Z,3.83
2018-12-02T09:17:13.023Z,3.70
2018-12-02T09:19:42.388Z,3.77
2018-12-02T09:22:11.663Z,3.90
2018-12-02T09:24:41.004Z,3.93
2018-12-02T09:27:10.383Z,3.92
2018-12-02T09:29:39.701Z,3.90
2018-12-02T09:32:09.059Z,4.43
2018-12-02T09:34:38.429Z,4.40
2018-12-02T09:37:07.784Z,4.81
2018-12-02T09:39:37.148Z,4.68
2018-12-02T09:42:06.719Z,4.90
2018-12-02T09:44:36.052Z,4.78
2018-12-02T09:47:05.465Z,4.91
2018-12-02T09:49:34.881Z,4.61
2018-12-02T09:52:04.220Z,4.49
2018-12-02T09:54:33.601Z,4.48
2018-12-02T09:57:02.960Z,4.51
2018-12-02T09:59:32.288Z,4.57
2018-12-02T10:02:01.592Z,4.83
2018-12-02T10:04:30.935Z,4.77
2018-12-02T10:07:00.397Z,4.75
2018-12-02T10:09:29.693Z,4.79
2018-12-02T10:11:58.998Z,4.73
2018-12-02T10:14:28.316Z,5.26
2018-12-02T10:16:57.620Z,5.35
2018-12-02T10:19:26.992Z,5.32
2018-12-02T10:21:56.319Z,5.31
2018-12-02T10:24:25.640Z,5.55
2018-12-02T10:26:54.931Z,5.69
2018-12-02T10:29:24.305Z,5.54
2018-12-02T10:31:53.628Z,5.75
2018-12-02T10:34:22.968Z,5.92
2018-12-02T10:36:52.301Z,5.31
2018-12-02T10:39:21.607Z,5.43
2018-12-02T10:41:50.955Z,5.26
2018-12-02T10:44:20.288Z,5.46
2018-12-02T10:46:49.606Z,5.22
2018-12-02T10:49:18.924Z,5.56
2018-12-02T10:51:48.236Z,5.61
2018-12-02T10:54:17.540Z,5.51
2018-12-02T10:56:47.015Z,5.47
2018-12-02T10:59:17.301Z,5.71
2018-12-02T11:01:47.681Z,6.12
2018-12-02T11:04:17.050Z,5.88
2018-12-02T11:06:46.662Z,6.14
2018-12-02T11:09:16.877Z,6.14
2018-12-02T11:11:47.482Z,5.90
2018-12-02T11:14:17.796Z,6.68
2018-12-02T11:16:47.135Z,6.72
2018-12-02T11:19:16.456Z,6.65
2018-12-02T11:21:45.806Z,6.87
2018-12-02T11:24:15.117Z,6.56
2018-12-02T11:26:45.746Z,6.44
2018-12-02T11:29:15.039Z,6.38
2018-12-02T11:31:44.415Z,6.51
2018-12-02T11:34:13.759Z,6.48
2018-12-02T11:36:43.080Z,5.91
2018-12-02T11:39:12.406Z,6.19
2018-12-02T11:41:41.757Z,6.47
2018-12-02T11:44:11.095Z,6.79
2018-12-02T11:46:40.383Z,6.89
2018-12-02T11:49:09.744Z,6.58
2018-12-02T11:51:39.064Z,6.84
2018-12-02T11:54:08.424Z,6.92
2018-12-02T11:56:37.732Z,6.67
2018-12-02T11:59:07.065Z,6.46
2018-12-02T12:01:36.379Z,6.22
2018-12-02T12:04:05.875Z,6.29
2018-12-02T12:06:35.222Z,6.26
2018-12-02T12:09:06.447Z,6.64
2018-12-02T12:11:35.775Z,6.40
2018-12-02T12:14:05.103Z,6.41
2018-12-02T12:16:34.779Z,6.46
2018-12-02T12:19:04.096Z,6.45
2018-12-02T12:21:33.400Z,6.56
2018-12-02T12:24:02.683Z,6.38
2018-12-02T12:26:31.979Z,6.45
2018-12-02T12:29:02.596Z,6.48
2018-12-02T12:31:31.946Z,6.45
2018-12-02T12:34:02.219Z,6.49
2018-12-02T12:36:31.576Z,6.55
2018-12-02T12:39:00.889Z,6.49
2018-12-02T12:41:30.976Z,6.65
2018-12-02T12:44:00.315Z,6.66
2018-12-02T12:46:29.633Z,6.73
2018-12-02T12:48:58.920Z,6.69
2018-12-02T12:51:28.226Z,6.91
2018-12-02T12:53:57.515Z,6.99
2018-12-02T12:56:26.854Z,7.18
2018-12-02T12:58:56.154Z,7.45
2018-12-02T13:01:25.419Z,7.67
2018-12-02T13:03:54.908Z,7.76
2018-12-02T13:06:24.206Z,7.81
2018-12-02T13:08:53.611Z,7.84
2018-12-02T13:11:22.962Z,7.83
2018-12-02T13:13:52.247Z,7.75
2018-12-02T13:16:21.545Z,7.85
2018-12-02T13:18:50.849Z,7.75
2018-12-02T13:21:20.192Z,7.49
2018-12-02T13:23:49.476Z,7.39
2018-12-02T13:26:18.747Z,7.51
2018-12-02T13:28:48.111Z,7.58
2018-12-02T13:31:17.613Z,7.68
2018-12-02T13:33:46.929Z,7.42
2018-12-02T13:36:16.273Z,7.28
2018-12-02T13:38:45.597Z,7.24
2018-12-02T13:41:14.932Z,7.05
2018-12-02T13:43:44.297Z,6.94
2018-12-02T13:46:13.764Z,6.93
2018-12-02T13:48:43.066Z,6.98
2018-12-02T13:51:12.399Z,7.15
2018-12-02T13:53:46.844Z,7.08
2018-12-02T13:56:16.140Z,6.95
2018-12-02T13:58:45.420Z,6.96
2018-12-02T14:01:14.711Z,6.86
2018-12-02T14:03:44.034Z,7.08
2018-12-02T14:06:13.369Z,7.49
2018-12-02T14:08:42.720Z,7.63
2018-12-02T14:11:12.296Z,7.12
2018-12-02T14:13:41.649Z,7.40
2018-12-02T14:16:30.449Z,7.59
2018-12-02T14:19:08.044Z,7.61
2018-12-02T14:21:37.378Z,7.38
2018-12-02T14:24:10.400Z,7.42
2018-12-02T14:26:43.537Z,7.42
2018-12-02T14:29:33.296Z,7.46
2018-12-02T14:32:08.852Z,7.58
2018-12-02T14:34:38.804Z,7.58
2018-12-02T14:37:08.206Z,7.50
2018-12-02T14:39:37.515Z,7.53
2018-12-02T14:42:07.175Z,7.38
2018-12-02T14:44:36.516Z,7.45
2018-12-02T14:47:07.277Z,7.09
2018-12-02T14:49:36.609Z,6.92
2018-12-02T14:52:06.459Z,6.81
2018-12-02T14:54:35.744Z,6.97
2018-12-02T14:57:05.177Z,7.46
2018-12-02T14:59:35.067Z,7.44
2018-12-02T15:02:04.454Z,7.63
2018-12-02T15:04:33.756Z,7.42
2018-12-02T15:07:03.096Z,7.32
2018-12-02T15:09:32.416Z,7.36
2018-12-02T15:12:03.018Z,7.62
2018-12-02T15:14:32.327Z,7.57
2018-12-02T15:17:01.680Z,7.56
2018-12-02T15:19:30.990Z,7.71
2018-12-02T15:22:00.264Z,8.42
2018-12-02T15:24:29.551Z,9.23
2018-12-02T15:26:58.824Z,9.50
2018-12-02T15:29:28.089Z,9.77
2018-12-02T15:31:57.379Z,9.80
2018-12-02T15:34:26.720Z,10.06
2018-12-02T15:36:56.042Z,9.99
2018-12-02T15:39:25.322Z,10.11
2018-12-02T15:41:54.901Z,10.07
2018-12-02T15:44:24.191Z,10.26
2018-12-02T15:46:53.528Z,10.20
2018-12-02T15:49:22.853Z,10.48
2018-12-02T15:51:52.155Z,10.38
2018-12-02T15:54:21.447Z,10.45
2018-12-02T15:56:50.760Z,10.45
2018-12-02T15:59:20.088Z,10.38
2018-12-02T16:01:49.477Z,10.34
2018-12-02T16:04:18.800Z,10.22
2018-12-02T16:06:48.121Z,10.19
2018-12-02T16:09:17.432Z,10.01
2018-12-02T16:11:46.779Z,10.07
2018-12-02T16:14:16.079Z,9.99
2018-12-02T16:16:45.397Z,9.84
2018-12-02T16:19:14.690Z,9.95
2018-12-02T16:21:43.994Z,10.07
2018-12-02T16:24:13.276Z,10.05
2018-12-02T16:26:42.584Z,9.96
2018-12-02T16:29:11.859Z,10.12
2018-12-02T16:31:41.223Z,10.12
2018-12-02T16:34:10.496Z,10.18
2018-12-02T16:36:39.781Z,10.09
2018-12-02T16:39:10.846Z,10.23
2018-12-02T16:41:40.209Z,10.26
2018-12-02T16:44:09.501Z,10.07
2018-12-02T16:46:38.792Z,9.90
2018-12-02T16:49:08.115Z,10.06
2018-12-02T16:51:37.476Z,10.05
2018-12-02T16:54:07.480Z,10.07
2018-12-02T16:56:37.667Z,10.03
2018-12-02T16:59:23.482Z,10.13
2018-12-02T17:01:58.292Z,10.27
2018-12-02T17:04:27.655Z,10.30
2018-12-02T17:06:56.950Z,10.28
2018-12-02T17:09:26.263Z,10.42
2018-12-02T17:11:55.636Z,10.50
2018-12-02T17:14:24.988Z,10.53
2018-12-02T17:16:54.317Z,10.48
2018-12-02T17:19:23.705Z,10.37
2018-12-02T17:21:53.010Z,10.27
2018-12-02T17:24:22.388Z,10.35
2018-12-02T17:26:51.737Z,10.33
2018-12-02T17:29:21.885Z,10.26
2018-12-02T17:31:57.192Z,10.38
2018-12-02T17:34:26.541Z,10.42
2018-12-02T17:36:56.016Z,10.31
2018-12-02T17:39:28.068Z,10.21
2018-12-02T17:42:06.844Z,10.19
2018-12-02T17:44:36.192Z,10.12
2018-12-02T17:47:05.618Z,9.81
2018-12-02T17:49:34.956Z,10.20
2018-12-02T17:52:04.251Z,9.92
2018-12-02T17:54:33.563Z,9.71
2018-12-02T17:57:02.888Z,9.22
2018-12-02T17:59:32.188Z,9.44
2018-12-02T18:02:01.521Z,9.26
2018-12-02T18:04:30.829Z,9.19
2018-12-02T18:07:00.151Z,9.24
2018-12-02T18:09:29.438Z,9.20
2018-12-02T18:11:58.760Z,9.27
2018-12-02T18:14:28.096Z,9.10
2018-12-02T18:16:57.428Z,8.86
2018-12-02T18:19:26.796Z,8.82
2018-12-02T18:21:56.110Z,8.71
2018-12-02T18:24:25.424Z,8.90
2018-12-02T18:26:54.747Z,8.88
2018-12-02T18:29:24.039Z,8.93
2018-12-02T18:31:53.329Z,9.10
2018-12-02T18:34:22.619Z,9.18
2018-12-02T18:36:52.368Z,9.31
2018-12-02T18:39:21.650Z,9.64
2018-12-02T18:41:53.633Z,9.81
2018-12-02T18:44:23.013Z,9.63
2018-12-02T18:46:52.549Z,9.71
2018-12-02T18:49:21.889Z,9.66
2018-12-02T18:51:51.193Z,9.36
2018-12-02T18:54:20.521Z,9.36
2018-12-02T18:56:49.861Z,9.32
2018-12-02T18:59:20.428Z,9.36
2018-12-02T19:01:49.765Z,9.15
2018-12-02T19:04:19.093Z,8.97
2018-12-02T19:06:48.477Z,9.07
2018-12-02T19:09:17.788Z,8.93
2018-12-02T19:11:47.080Z,9.12
2018-12-02T19:14:16.413Z,9.07
2018-12-02T19:16:45.733Z,9.11
2018-12-02T19:19:15.032Z,8.96
2018-12-02T19:21:44.324Z,9.15
2018-12-02T19:24:13.649Z,9.36
2018-12-02T19:26:42.968Z,9.62
2018-12-02T19:29:12.545Z,9.51
2018-12-02T19:31:41.859Z,9.63
2018-12-02T19:34:11.144Z,9.67
2018-12-02T19:36:51.963Z,10.12
2018-12-02T19:39:21.323Z,10.14
2018-12-02T19:41:50.622Z,10.04
2018-12-02T19:44:19.944Z,10.25
2018-12-02T19:46:49.216Z,10.36
2018-12-02T19:49:18.563Z,10.36
2018-12-02T19:51:47.862Z,10.37
2018-12-02T19:54:17.202Z,10.34
2018-12-02T19:56:46.504Z,10.47
2018-12-02T19:59:15.792Z,10.42
2018-12-02T20:01:45.132Z,10.53
2018-12-02T20:04:14.425Z,10.27
2018-12-02T20:06:43.781Z,10.39
2018-12-02T20:09:13.078Z,10.32
2018-12-02T20:11:42.359Z,10.22
2018-12-02T20:14:11.662Z,10.22
2018-12-02T20:16:40.940Z,9.97
2018-12-02T20:19:15.704Z,9.88
2018-12-02T20:21:45.013Z,9.67
2018-12-02T20:24:19.612Z,9.60
2018-12-02T20:26:48.878Z,9.48
2018-12-02T20:29:18.113Z,9.36
2018-12-02T20:31:47.378Z,9.99
2018-12-02T20:34:16.633Z,9.97
2018-12-02T20:36:45.875Z,9.99
2018-12-02T20:39:15.242Z,9.84
2018-12-02T20:41:44.552Z,9.95
2018-12-02T20:44:13.885Z,9.89
2018-12-02T20:46:43.179Z,9.65
2018-12-02T20:49:12.495Z,9.79
2018-12-02T20:51:41.841Z,9.78
2018-12-02T20:54:11.158Z,9.69
2018-12-02T20:56:40.447Z,9.57
2018-12-02T20:59:10.001Z,9.49
2018-12-02T21:01:39.309Z,9.37
2018-12-02T21:04:11.507Z,9.38
2018-12-02T21:06:40.881Z,9.38
2018-12-02T21:09:10.185Z,9.33
2018-12-02T21:11:40.634Z,9.18
2018-12-02T21:14:09.490Z,9.24
2018-12-02T21:16:38.857Z,9.25
2018-12-02T21:19:08.204Z,9.19
2018-12-02T21:21:37.607Z,9.18
2018-12-02T21:24:07.220Z,9.23
2018-12-02T21:26:37.800Z,9.21
2018-12-02T21:29:07.145Z,9.16
2018-12-02T21:31:36.480Z,9.14
2018-12-02T21:34:06.160Z,9.00
2018-12-02T21:36:35.483Z,8.91
2018-12-02T21:39:09.931Z,8.88
2018-12-02T21:41:39.463Z,8.77
2018-12-02T21:44:08.775Z,8.78
2018-12-02T21:46:38.127Z,8.70
2018-12-02T21:49:07.602Z,8.63
2018-12-02T21:51:37.285Z,8.63
2018-12-02T21:54:07.185Z,8.65
2018-12-02T21:56:36.489Z,8.61
2018-12-02T21:59:06.072Z,8.68
2018-12-02T22:01:35.418Z,8.57
2018-12-02T22:04:04.735Z,8.66
2018-12-02T22:06:34.061Z,8.66
2018-12-02T22:09:03.490Z,8.70
2018-12-02T22:11:32.801Z,8.76
2018-12-02T22:14:02.107Z,8.70
2018-12-02T22:16:31.440Z,8.44
2018-12-02T22:19:00.749Z,8.65
2018-12-02T22:21:30.077Z,8.70
2018-12-02T22:24:01.433Z,8.55
2018-12-02T22:26:28.757Z,8.50
2018-12-02T22:28:58.043Z,8.47
2018-12-02T22:31:27.331Z,8.40
2018-12-02T22:33:56.631Z,8.42
2018-12-02T22:36:25.948Z,8.38
2018-12-02T22:38:55.296Z,8.31
2018-12-02T22:41:24.628Z,8.33
2018-12-02T22:43:53.911Z,8.39
2018-12-02T22:46:23.205Z,8.33
2018-12-02T22:48:52.528Z,8.32
2018-12-02T22:51:22.103Z,8.29
2018-12-02T22:53:51.383Z,8.19
2018-12-02T22:56:20.690Z,8.30
2018-12-02T22:58:50.051Z,8.21
2018-12-02T23:03:04.328Z,8.17
2018-12-02T23:05:33.862Z,8.09
2018-12-02T23:08:03.260Z,8.25
2018-12-02T23:10:32.828Z,8.30
2018-12-02T23:13:02.136Z,8.33
2018-12-02T23:15:31.468Z,8.38
2018-12-02T23:18:00.784Z,8.21
2018-12-02T23:20:30.091Z,8.39
2018-12-02T23:22:59.436Z,8.38
2018-12-02T23:25:28.732Z,8.32
2018-12-02T23:27:58.034Z,8.34
2018-12-02T23:30:27.660Z,8.33
2018-12-02T23:32:56.960Z,8.48
2018-12-02T23:35:26.291Z,8.34
2018-12-02T23:37:55.600Z,8.60
2018-12-02T23:40:25.927Z,8.63
2018-12-02T23:42:55.231Z,8.69
2018-12-02T23:45:24.551Z,8.81
2018-12-02T23:47:53.877Z,9.03
2018-12-02T23:50:24.163Z,9.10
2018-12-02T23:52:53.575Z,9.31
2018-12-02T23:55:23.104Z,9.34
2018-12-02T23:57:52.638Z,9.32
